Time;durP1;ratioP1;P1;durP2;ratioP2;P2;SDS_P1;SDS_P2;PMS_P1;PMS_P2;Temp;Humidity;BMP_temperature;BMP_pressure;BME280_temperature;BME280_humidity;BME280_pressure;Samples;Min_cycle;Max_cycle;Signal;HPM_P1;HPM_P2
2022/01/08 00:00:22;;;;;;;33.83;15.97;;;;;;;;;;5050163;28;20496;-63
2022/01/08 00:02:50;;;;;;;31.70;13.73;;;;;;;;;;5049844;28;20491;-63
2022/01/08 00:05:17;;;;;;;33.37;13.63;;;;;;;;;;5050030;28;20461;-63
2022/01/08 00:07:43;;;;;;;20.67;9.63;;;;;;;;;;5050116;28;20444;-63
2022/01/08 00:10:10;;;;;;;34.40;16.90;;;;;;;;;;5049570;28;20457;-63
2022/01/08 00:12:36;;;;;;;30.80;13.57;;;;;;;;;;5049958;28;20432;-63
2022/01/08 00:15:04;;;;;;;39.00;16.00;;;;;;;;;;5049891;28;20433;-63
2022/01/08 00:17:31;;;;;;;42.53;19.00;;;;;;;;;;5049707;28;20429;-62
2022/01/08 00:19:58;;;;;;;28.27;10.90;;;;;;;;;;5049827;28;20936;-63
2022/01/08 00:22:24;;;;;;;45.70;21.97;;;;;;;;;;5049718;28;20462;-63
2022/01/08 00:24:52;;;;;;;45.80;20.13;;;;;;;;;;5049525;28;21069;-63
2022/01/08 00:27:19;;;;;;;45.47;22.00;;;;;;;;;;5049590;28;20480;-64
2022/01/08 00:29:46;;;;;;;36.50;15.57;;;;;;;;;;5069690;28;20539;-63
2022/01/08 00:32:14;;;;;;;23.97;9.77;;;;;;;;;;5069497;28;20850;-63
2022/01/08 00:34:41;;;;;;;48.10;22.63;;;;;;;;;;5069951;28;20432;-63
2022/01/08 00:37:08;;;;;;;45.13;19.67;;;;;;;;;;5069961;28;20927;-63
2022/01/08 00:39:35;;;;;;;52.03;22.77;;;;;;;;;;5069735;28;20439;-63
2022/01/08 00:42:01;;;;;;;51.30;23.17;;;;;;;;;;5069674;28;20947;-63
2022/01/08 00:44:28;;;;;;;48.33;21.90;;;;;;;;;;5052793;28;20453;-63
2022/01/08 00:46:55;;;;;;;49.43;22.57;;;;;;;;;;5049917;28;20526;-64
2022/01/08 00:49:24;;;;;;;46.33;23.50;;;;;;;;;;5049728;28;20425;-63
2022/01/08 00:51:51;;;;;;;41.67;20.97;;;;;;;;;;5032168;28;20483;-63
2022/01/08 00:54:18;;;;;;;47.07;21.60;;;;;;;;;;5049525;28;20436;-63
2022/01/08 00:56:44;;;;;;;44.73;20.60;;;;;;;;;;5049620;28;20854;-63
2022/01/08 00:59:11;;;;;;;31.17;11.63;;;;;;;;;;5049409;28;20438;-63
2022/01/08 01:01:37;;;;;;;41.10;18.77;;;;;;;;;;5059076;28;20475;-63
2022/01/08 01:04:04;;;;;;;42.37;19.87;;;;;;;;;;5070923;28;20463;-63
2022/01/08 01:49:19;;;;;;;36.27;17.47;;;;;;;;;;5072735;28;20822;-63
2022/01/08 01:51:46;;;;;;;38.57;18.47;;;;;;;;;;5055878;28;20445;-63
2022/01/08 01:54:13;;;;;;;34.37;14.60;;;;;;;;;;5052320;28;20429;-63
2022/01/08 01:56:39;;;;;;;36.70;17.30;;;;;;;;;;5052389;28;20430;-63
2022/01/08 01:59:06;;;;;;;29.47;13.93;;;;;;;;;;5034778;28;20434;-63
2022/01/08 02:01:33;;;;;;;39.50;18.70;;;;;;;;;;5052314;28;20805;-63
2022/01/08 02:04:00;;;;;;;34.03;15.53;;;;;;;;;;5052095;28;20433;-63
2022/01/08 02:06:26;;;;;;;39.60;16.97;;;;;;;;;;5052298;28;20500;-63
2022/01/08 02:08:53;;;;;;;34.90;17.33;;;;;;;;;;5051349;28;20449;-63
2022/01/08 02:11:20;;;;;;;38.40;17.10;;;;;;;;;;5052196;28;20524;-63
2022/01/08 02:13:50;;;;;;;33.87;16.60;;;;;;;;;;5051952;28;20929;-63
2022/01/08 02:16:17;;;;;;;33.20;16.73;;;;;;;;;;5051711;28;20461;-63
2022/01/08 02:18:44;;;;;;;29.23;14.53;;;;;;;;;;5060255;28;20497;-63
2022/01/08 02:21:12;;;;;;;32.57;18.17;;;;;;;;;;5053097;28;20448;-63
2022/01/08 02:23:42;;;;;;;34.87;17.07;;;;;;;;;;5053026;28;20438;-63
2022/01/08 02:26:09;;;;;;;33.97;16.53;;;;;;;;;;5050678;28;21304;-63
2022/01/08 02:28:36;;;;;;;27.47;13.63;;;;;;;;;;5072025;28;20429;-63
2022/01/08 02:31:03;;;;;;;33.00;16.23;;;;;;;;;;5071680;28;20886;-63
2022/01/08 02:33:30;;;;;;;33.87;17.57;;;;;;;;;;5071752;28;20463;-63
2022/01/08 02:35:56;;;;;;;32.53;15.47;;;;;;;;;;5071656;28;20431;-63
2022/01/08 02:38:24;;;;;;;32.07;17.50;;;;;;;;;;5071560;28;20503;-63
2022/01/08 02:40:55;;;;;;;33.17;16.90;;;;;;;;;;5071363;28;20433;-63
2022/01/08 02:43:23;;;;;;;32.13;15.83;;;;;;;;;;5052027;28;20899;-63
2022/01/08 02:45:50;;;;;;;33.33;14.70;;;;;;;;;;5051406;28;20465;-63
2022/01/08 02:48:17;;;;;;;32.03;14.77;;;;;;;;;;5051619;28;20449;-63
2022/01/08 02:50:43;;;;;;;32.57;16.60;;;;;;;;;;5051394;28;20508;-63
2022/01/08 02:53:10;;;;;;;30.43;17.13;;;;;;;;;;5051291;28;20444;-63
2022/01/08 02:55:36;;;;;;;32.33;17.43;;;;;;;;;;5051455;28;20785;-63
2022/01/08 02:58:03;;;;;;;31.37;16.50;;;;;;;;;;5060196;28;20447;-64
2022/01/08 03:00:30;;;;;;;32.47;16.67;;;;;;;;;;5071007;28;20516;-63
2022/01/08 03:02:56;;;;;;;30.60;17.43;;;;;;;;;;5071202;28;20450;-63
2022/01/08 03:05:23;;;;;;;28.20;15.57;;;;;;;;;;5071129;28;20491;-63
2022/01/08 03:07:50;;;;;;;27.80;16.23;;;;;;;;;;5071040;28;20433;-63
2022/01/08 03:10:17;;;;;;;32.30;15.87;;;;;;;;;;5071026;28;20417;-63
2022/01/08 03:12:44;;;;;;;33.10;15.80;;;;;;;;;;5070080;28;20444;-63
2022/01/08 03:15:11;;;;;;;32.37;17.23;;;;;;;;;;5070935;28;20421;-63
2022/01/08 03:17:38;;;;;;;31.50;16.50;;;;;;;;;;5070692;28;20433;-63
2022/01/08 03:20:07;;;;;;;31.43;16.27;;;;;;;;;;5070878;28;20478;-63
2022/01/08 03:22:34;;;;;;;29.37;16.80;;;;;;;;;;5070590;28;20838;-63
2022/01/08 03:25:00;;;;;;;33.07;17.00;;;;;;;;;;5070674;28;20464;-63
2022/01/08 03:27:27;;;;;;;29.33;17.23;;;;;;;;;;5070067;28;20562;-63
2022/01/08 03:29:53;;;;;;;35.77;17.37;;;;;;;;;;5067281;28;21021;-63
2022/01/08 03:32:20;;;;;;;26.90;14.00;;;;;;;;;;5032988;28;20433;-63
2022/01/08 03:34:47;;;;;;;32.13;17.43;;;;;;;;;;5050449;28;21078;-63
2022/01/08 03:37:13;;;;;;;30.53;16.90;;;;;;;;;;5050473;28;20429;-63
2022/01/08 03:39:40;;;;;;;34.30;18.80;;;;;;;;;;5050427;28;20480;-64
2022/01/08 03:42:06;;;;;;;31.97;17.43;;;;;;;;;;5050385;28;20943;-63
2022/01/08 03:44:33;;;;;;;37.27;19.63;;;;;;;;;;5050170;28;20433;-63
2022/01/08 03:47:22;;;;;;;32.60;18.47;;;;;;;;;;5050259;28;21040;-64
2022/01/08 03:49:47;;;;;;;34.83;18.30;;;;;;;;;;5050122;28;20452;-64
2022/01/08 03:52:13;;;;;;;31.23;17.50;;;;;;;;;;5050265;28;20809;-64
2022/01/08 03:54:40;;;;;;;35.27;19.80;;;;;;;;;;5050197;28;20487;-64
2022/01/08 03:57:07;;;;;;;31.47;17.27;;;;;;;;;;5050436;28;20430;-64
2022/01/08 03:59:34;;;;;;;35.50;18.20;;;;;;;;;;5049944;28;20425;-64
2022/01/08 04:02:00;;;;;;;33.50;18.10;;;;;;;;;;5050164;28;20781;-64
2022/01/08 04:04:27;;;;;;;34.23;18.97;;;;;;;;;;5050173;28;20428;-64
2022/01/08 04:06:53;;;;;;;33.07;17.40;;;;;;;;;;5062950;28;20542;-64
2022/01/08 04:09:20;;;;;;;31.40;18.53;;;;;;;;;;5070019;28;20527;-64
2022/01/08 04:11:47;;;;;;;30.77;16.93;;;;;;;;;;5070143;28;20471;-64
2022/01/08 04:14:15;;;;;;;29.90;16.27;;;;;;;;;;5069763;28;20831;-64
2022/01/08 04:16:46;;;;;;;31.93;16.77;;;;;;;;;;5070071;28;20970;-64
2022/01/08 04:19:13;;;;;;;31.83;17.20;;;;;;;;;;5069868;28;20527;-64
2022/01/08 04:24:09;;;;;;;33.33;16.80;;;;;;;;;;5069974;28;20447;-64
2022/01/08 04:26:35;;;;;;;30.60;16.93;;;;;;;;;;5069739;28;20521;-63
2022/01/08 04:29:05;;;;;;;31.90;15.90;;;;;;;;;;5069930;28;20436;-64
2022/01/08 04:31:31;;;;;;;33.63;18.43;;;;;;;;;;5069549;28;21215;-64
2022/01/08 04:33:58;;;;;;;29.73;16.27;;;;;;;;;;5069786;28;20433;-64
2022/01/08 04:36:24;;;;;;;30.97;18.07;;;;;;;;;;5069770;28;20452;-64
2022/01/08 04:38:51;;;;;;;28.40;16.47;;;;;;;;;;5071261;28;20971;-63
2022/01/08 04:41:17;;;;;;;32.10;16.63;;;;;;;;;;5073937;28;20456;-63
2022/01/08 04:43:44;;;;;;;28.00;13.57;;;;;;;;;;5073768;28;20436;-63
2022/01/08 04:46:11;;;;;;;31.90;18.30;;;;;;;;;;5055824;28;21003;-64
2022/01/08 04:48:37;;;;;;;31.40;18.80;;;;;;;;;;5073665;28;20483;-63
2022/01/08 04:51:04;;;;;;;26.20;13.33;;;;;;;;;;5073743;28;20452;-63
2022/01/08 04:53:31;;;;;;;38.30;18.67;;;;;;;;;;5066779;28;20519;-64
2022/01/08 04:55:57;;;;;;;30.80;15.77;;;;;;;;;;5053623;28;20457;-64
2022/01/08 04:58:24;;;;;;;29.53;16.10;;;;;;;;;;5053565;28;20429;-64
2022/01/08 05:00:50;;;;;;;30.83;16.77;;;;;;;;;;5053315;28;20491;-63
2022/01/08 05:03:17;;;;;;;31.33;16.33;;;;;;;;;;5053555;28;20931;-63
2022/01/08 05:05:46;;;;;;;31.70;16.33;;;;;;;;;;5053328;28;20804;-64
2022/01/08 05:08:12;;;;;;;29.87;16.03;;;;;;;;;;5053011;28;20429;-64
2022/01/08 05:10:39;;;;;;;31.10;17.30;;;;;;;;;;5053275;28;20460;-64
2022/01/08 05:13:06;;;;;;;14.30;7.77;;;;;;;;;;5053301;28;20440;-63
2022/01/08 05:15:33;;;;;;;31.73;17.23;;;;;;;;;;5053096;28;20463;-64
2022/01/08 05:18:00;;;;;;;32.80;16.53;;;;;;;;;;5053230;28;20953;-64
2022/01/08 05:20:31;;;;;;;33.50;18.67;;;;;;;;;;5053169;28;20498;-64
2022/01/08 05:23:00;;;;;;;33.80;17.53;;;;;;;;;;5053091;28;20427;-64
2022/01/08 05:25:27;;;;;;;35.43;19.87;;;;;;;;;;5052945;28;20441;-64
2022/01/08 05:27:54;;;;;;;38.87;20.33;;;;;;;;;;5067033;28;20503;-64
2022/01/08 05:30:21;;;;;;;34.87;19.50;;;;;;;;;;5073032;28;20913;-64
2022/01/08 05:32:48;;;;;;;38.93;20.23;;;;;;;;;;5073741;28;20490;-65
2022/01/08 05:35:15;;;;;;;34.77;18.87;;;;;;;;;;5073559;28;20460;-65
2022/01/08 05:37:41;;;;;;;35.43;19.53;;;;;;;;;;5056151;28;20462;-64
2022/01/08 05:40:08;;;;;;;29.67;16.10;;;;;;;;;;5073437;28;20467;-63
2022/01/08 05:42:35;;;;;;;37.47;18.97;;;;;;;;;;5053751;28;20866;-64
2022/01/08 05:45:01;;;;;;;35.70;19.33;;;;;;;;;;5053658;28;20483;-65
2022/01/08 05:47:33;;;;;;;35.57;19.10;;;;;;;;;;5053042;28;20476;-64
2022/01/08 05:50:00;;;;;;;34.53;19.33;;;;;;;;;;5052474;28;20440;-64
2022/01/08 05:52:26;;;;;;;32.23;17.03;;;;;;;;;;5053199;28;20456;-64
2022/01/08 05:54:53;;;;;;;34.67;18.33;;;;;;;;;;5035426;28;20456;-64
2022/01/08 05:57:19;;;;;;;51.87;23.20;;;;;;;;;;5053150;28;20808;-65
2022/01/08 05:59:46;;;;;;;42.77;20.50;;;;;;;;;;5053271;28;20475;-64
2022/01/08 06:02:14;;;;;;;37.43;19.33;;;;;;;;;;5035527;28;20559;-64
2022/01/08 06:04:41;;;;;;;52.27;22.07;;;;;;;;;;5053145;28;20469;-64
2022/01/08 06:07:08;;;;;;;53.50;22.70;;;;;;;;;;5052981;28;20476;-64
2022/01/08 06:09:34;;;;;;;32.80;19.47;;;;;;;;;;5053104;28;20558;-65
2022/01/08 06:12:01;;;;;;;32.10;17.83;;;;;;;;;;5053013;28;20441;-64
2022/01/08 06:14:28;;;;;;;33.47;19.00;;;;;;;;;;5070086;28;20487;-66
2022/01/08 06:16:54;;;;;;;32.53;17.97;;;;;;;;;;5052443;28;20972;-65
2022/01/08 06:19:21;;;;;;;27.10;16.43;;;;;;;;;;5052938;28;20773;-65
2022/01/08 06:21:47;;;;;;;29.50;16.93;;;;;;;;;;5052901;28;20434;-65
2022/01/08 06:24:14;;;;;;;32.17;18.50;;;;;;;;;;5052671;28;20425;-65
2022/01/08 06:26:41;;;;;;;32.03;18.33;;;;;;;;;;5052697;28;20472;-65
2022/01/08 06:29:07;;;;;;;31.70;18.50;;;;;;;;;;5047759;28;20452;-67
2022/01/08 06:31:35;;;;;;;33.07;19.03;;;;;;;;;;5066340;28;20436;-67
2022/01/08 06:34:03;;;;;;;32.33;19.10;;;;;;;;;;5075166;28;20444;-66
2022/01/08 06:36:29;;;;;;;35.20;19.83;;;;;;;;;;5072012;28;20533;-66
2022/01/08 06:38:56;;;;;;;34.17;18.43;;;;;;;;;;5072643;28;20474;-66
2022/01/08 06:41:23;;;;;;;32.17;18.87;;;;;;;;;;5082280;28;20435;-65
2022/01/08 06:43:49;;;;;;;31.13;18.03;;;;;;;;;;5080260;28;20490;-66
2022/01/08 06:46:16;;;;;;;29.47;17.40;;;;;;;;;;5068914;28;20428;-67
2022/01/08 06:48:43;;;;;;;33.33;17.57;;;;;;;;;;5083430;28;20431;-65
2022/01/08 06:51:10;;;;;;;28.67;17.30;;;;;;;;;;5059055;28;20814;-64
2022/01/08 06:53:36;;;;;;;31.07;18.10;;;;;;;;;;5071814;28;20443;-64
2022/01/08 06:56:04;;;;;;;34.87;18.87;;;;;;;;;;5071804;28;20455;-64
2022/01/08 06:58:30;;;;;;;31.50;17.37;;;;;;;;;;5071126;28;20435;-64
2022/01/08 07:00:57;;;;;;;31.43;17.47;;;;;;;;;;5070440;28;20467;-64
2022/01/08 07:03:23;;;;;;;33.50;18.60;;;;;;;;;;5071005;28;21057;-64
2022/01/08 07:05:50;;;;;;;34.07;17.87;;;;;;;;;;5041693;28;20963;-64
2022/01/08 07:08:17;;;;;;;31.53;17.90;;;;;;;;;;5051024;28;21187;-64
2022/01/08 07:10:43;;;;;;;31.93;18.03;;;;;;;;;;5050869;28;20835;-65
2022/01/08 07:13:10;;;;;;;28.80;17.83;;;;;;;;;;5051680;28;20430;-65
2022/01/08 07:15:36;;;;;;;30.87;17.23;;;;;;;;;;5051917;28;20445;-65
2022/01/08 07:18:03;;;;;;;31.37;18.47;;;;;;;;;;5051928;28;20789;-65
2022/01/08 07:20:32;;;;;;;30.53;17.70;;;;;;;;;;5034382;28;20463;-65
2022/01/08 07:22:59;;;;;;;31.60;18.30;;;;;;;;;;5051620;28;20448;-65
2022/01/08 07:25:26;;;;;;;31.30;17.87;;;;;;;;;;5051534;28;20460;-65
2022/01/08 07:27:52;;;;;;;34.00;19.10;;;;;;;;;;5051247;28;20472;-65
2022/01/08 07:30:19;;;;;;;29.50;16.63;;;;;;;;;;5051514;28;20469;-65
2022/01/08 07:32:48;;;;;;;31.00;17.70;;;;;;;;;;5051471;28;20983;-65
2022/01/08 07:35:15;;;;;;;29.07;16.00;;;;;;;;;;5051429;28;20433;-65
2022/01/08 07:37:44;;;;;;;28.27;15.17;;;;;;;;;;5051299;28;20532;-65
2022/01/08 07:40:11;;;;;;;32.33;16.60;;;;;;;;;;5050988;28;20501;-65
2022/01/08 07:42:38;;;;;;;27.63;15.83;;;;;;;;;;5051346;28;20440;-65
2022/01/08 07:45:05;;;;;;;30.20;15.80;;;;;;;;;;5051290;28;20431;-65
2022/01/08 07:47:31;;;;;;;30.00;16.03;;;;;;;;;;5051111;28;20472;-65
2022/01/08 07:49:58;;;;;;;32.00;16.70;;;;;;;;;;5051239;28;20463;-64
2022/01/08 07:52:25;;;;;;;27.67;15.27;;;;;;;;;;5051067;28;20448;-64
2022/01/08 07:54:51;;;;;;;30.57;14.47;;;;;;;;;;5050748;28;20441;-64
2022/01/08 07:57:19;;;;;;;34.17;16.30;;;;;;;;;;5052805;28;20963;-65
2022/01/08 07:59:46;;;;;;;29.13;14.80;;;;;;;;;;5061479;28;20562;-65
2022/01/08 08:02:13;;;;;;;27.67;12.83;;;;;;;;;;5069627;28;20475;-65
2022/01/08 08:04:39;;;;;;;32.87;16.70;;;;;;;;;;5064976;28;20445;-64
2022/01/08 08:07:06;;;;;;;34.07;16.13;;;;;;;;;;5066082;28;20559;-65
2022/01/08 08:09:33;;;;;;;22.70;11.90;;;;;;;;;;5070267;28;20851;-64
2022/01/08 08:12:00;;;;;;;29.07;14.23;;;;;;;;;;5055022;28;20456;-64
2022/01/08 08:14:26;;;;;;;32.77;17.70;;;;;;;;;;5054013;28;20487;-65
2022/01/08 08:16:53;;;;;;;33.80;15.63;;;;;;;;;;5070719;28;20428;-64
2022/01/08 08:19:20;;;;;;;35.63;17.63;;;;;;;;;;5071058;28;20835;-65
2022/01/08 08:21:46;;;;;;;23.07;12.77;;;;;;;;;;5066313;28;20442;-65
2022/01/08 08:24:18;;;;;;;18.57;8.37;;;;;;;;;;5068775;28;20532;-65
2022/01/08 08:26:45;;;;;;;36.30;19.43;;;;;;;;;;5068988;28;20510;-65
2022/01/08 08:29:12;;;;;;;22.17;9.80;;;;;;;;;;5057541;28;20550;-65
2022/01/08 08:31:39;;;;;;;21.03;10.00;;;;;;;;;;5052328;28;20441;-65
2022/01/08 08:34:08;;;;;;;18.40;10.33;;;;;;;;;;5069508;28;20951;-65
2022/01/08 08:36:34;;;;;;;37.00;18.17;;;;;;;;;;5068909;28;20427;-65
2022/01/08 08:39:01;;;;;;;25.40;10.00;;;;;;;;;;5068469;28;20468;-65
2022/01/08 08:41:28;;;;;;;33.87;14.90;;;;;;;;;;5068842;28;20431;-64
2022/01/08 08:43:54;;;;;;;25.77;9.63;;;;;;;;;;5064514;28;20441;-64
2022/01/08 08:46:21;;;;;;;37.43;15.80;;;;;;;;;;5057919;28;20448;-65
2022/01/08 08:48:48;;;;;;;28.60;13.67;;;;;;;;;;5049183;28;20472;-65
2022/01/08 08:51:14;;;;;;;30.30;13.37;;;;;;;;;;5060583;28;20780;-64
2022/01/08 08:53:41;;;;;;;39.60;19.83;;;;;;;;;;5069032;28;20795;-64
2022/01/08 08:56:08;;;;;;;38.40;18.43;;;;;;;;;;5067203;28;20506;-65
2022/01/08 08:58:35;;;;;;;31.80;14.97;;;;;;;;;;5068887;28;20471;-65
2022/01/08 09:01:01;;;;;;;26.47;11.83;;;;;;;;;;5069162;28;20436;-65
2022/01/08 09:03:28;;;;;;;38.37;17.93;;;;;;;;;;5060917;28;20449;-65
2022/01/08 09:05:55;;;;;;;39.70;19.33;;;;;;;;;;5048495;28;20437;-65
2022/01/08 09:08:21;;;;;;;30.30;11.77;;;;;;;;;;5048839;28;20500;-64
2022/01/08 09:10:48;;;;;;;30.27;13.10;;;;;;;;;;5054697;28;20444;-64
2022/01/08 09:13:14;;;;;;;31.07;13.43;;;;;;;;;;5063805;28;20444;-64
2022/01/08 09:15:42;;;;;;;31.97;15.90;;;;;;;;;;5048488;28;20429;-64
2022/01/08 09:18:08;;;;;;;40.33;17.67;;;;;;;;;;5056103;28;20440;-64
2022/01/08 09:20:35;;;;;;;37.57;17.03;;;;;;;;;;5067954;28;20432;-65
2022/01/08 09:23:02;;;;;;;28.37;12.23;;;;;;;;;;5057988;28;20424;-64
2022/01/08 09:25:31;;;;;;;38.70;16.40;;;;;;;;;;5070425;28;20544;-65
2022/01/08 09:27:57;;;;;;;48.27;21.40;;;;;;;;;;5058880;28;20469;-64
2022/01/08 09:30:24;;;;;;;39.93;14.10;;;;;;;;;;5067357;28;20950;-64
2022/01/08 09:32:51;;;;;;;38.70;13.60;;;;;;;;;;5052961;28;20844;-64
2022/01/08 09:35:18;;;;;;;51.83;20.77;;;;;;;;;;5061250;28;20452;-64
2022/01/08 09:37:45;;;;;;;31.37;12.70;;;;;;;;;;5067606;28;20468;-65
2022/01/08 09:40:12;;;;;;;25.67;9.17;;;;;;;;;;5070142;28;20482;-65
2022/01/08 09:42:40;;;;;;;34.83;13.80;;;;;;;;;;5065879;28;20772;-64
2022/01/08 09:45:07;;;;;;;53.60;22.20;;;;;;;;;;5062898;28;20458;-64
2022/01/08 09:47:33;;;;;;;21.30;10.37;;;;;;;;;;5052137;28;20464;-64
2022/01/08 09:50:01;;;;;;;47.67;19.33;;;;;;;;;;5052304;28;20994;-64
2022/01/08 09:52:32;;;;;;;28.80;11.83;;;;;;;;;;5052259;28;20430;-64
2022/01/08 09:54:59;;;;;;;30.30;11.00;;;;;;;;;;5056114;28;20532;-65
2022/01/08 09:57:27;;;;;;;29.30;12.63;;;;;;;;;;5065695;28;20437;-64
2022/01/08 09:59:55;;;;;;;38.93;18.57;;;;;;;;;;5071609;28;20946;-64
2022/01/08 10:02:22;;;;;;;25.83;10.03;;;;;;;;;;5071517;28;20439;-64
2022/01/08 10:04:49;;;;;;;19.90;8.80;;;;;;;;;;5071393;28;20445;-64
2022/01/08 10:07:21;;;;;;;30.23;14.20;;;;;;;;;;5032161;28;20523;-64
2022/01/08 10:10:12;;;;;;;31.13;13.97;;;;;;;;;;5070627;28;20451;-64
2022/01/08 10:12:45;;;;;;;24.13;11.63;;;;;;;;;;5061798;28;20464;-65
2022/01/08 10:18:13;;;;;;;23.93;11.17;;;;;;;;;;5051316;28;20441;-65
2022/01/08 10:20:40;;;;;;;18.73;8.10;;;;;;;;;;5032780;28;20952;-65
2022/01/08 10:23:16;;;;;;;23.93;11.70;;;;;;;;;;5061560;28;20472;-65
2022/01/08 10:25:54;;;;;;;26.87;11.10;;;;;;;;;;5051661;28;20451;-65
2022/01/08 10:28:34;;;;;;;19.13;9.17;;;;;;;;;;5051327;28;20488;-65
2022/01/08 10:31:06;;;;;;;24.73;12.27;;;;;;;;;;5051405;28;20467;-66
2022/01/08 10:33:33;;;;;;;31.90;15.10;;;;;;;;;;5048787;28;20875;-65
2022/01/08 10:36:00;;;;;;;28.80;13.47;;;;;;;;;;5071042;28;20432;-66
2022/01/08 10:38:27;;;;;;;20.77;9.50;;;;;;;;;;5071027;28;20484;-65
2022/01/08 10:40:54;;;;;;;23.33;11.40;;;;;;;;;;5071185;28;20475;-65
2022/01/08 10:43:24;;;;;;;29.73;15.43;;;;;;;;;;5069953;28;21003;-65
2022/01/08 10:45:55;;;;;;;33.13;16.37;;;;;;;;;;5070097;28;20811;-64
2022/01/08 10:48:29;;;;;;;23.73;13.00;;;;;;;;;;5069076;28;20475;-65
2022/01/08 10:51:09;;;;;;;16.20;7.00;;;;;;;;;;5069540;28;20440;-65
2022/01/08 10:53:55;;;;;;;22.03;11.37;;;;;;;;;;5068646;28;20435;-66
2022/01/08 10:56:24;;;;;;;21.77;10.43;;;;;;;;;;5068600;28;21035;-65
2022/01/08 10:58:53;;;;;;;17.60;9.17;;;;;;;;;;5068560;28;20429;-69
2022/01/08 11:01:43;;;;;;;20.87;10.50;;;;;;;;;;5034562;28;20480;-64
2022/01/08 11:04:12;;;;;;;21.77;11.17;;;;;;;;;;5069563;28;20449;-65
2022/01/08 11:06:53;;;;;;;24.57;11.47;;;;;;;;;;5068636;28;20436;-66
2022/01/08 11:09:21;;;;;;;13.60;6.60;;;;;;;;;;5065340;28;20476;-63
2022/01/08 11:11:50;;;;;;;15.43;8.63;;;;;;;;;;5067029;28;20437;-65
2022/01/08 11:14:47;;;;;;;25.70;13.00;;;;;;;;;;5051578;28;20446;-69
2022/01/08 11:17:15;;;;;;;21.93;11.77;;;;;;;;;;5047192;28;20499;-67
2022/01/08 11:19:42;;;;;;;15.33;7.63;;;;;;;;;;5067120;28;20436;-68
2022/01/08 11:22:09;;;;;;;10.60;5.70;;;;;;;;;;5067275;28;20439;-67
2022/01/08 11:24:38;;;;;;;17.20;10.20;;;;;;;;;;5065263;28;21227;-68
2022/01/08 11:27:07;;;;;;;18.30;8.47;;;;;;;;;;5077883;28;20453;-68
2022/01/08 11:29:33;;;;;;;18.90;9.73;;;;;;;;;;5075082;28;21013;-68
2022/01/08 11:32:00;;;;;;;22.17;12.60;;;;;;;;;;5074591;28;20451;-67
2022/01/08 11:34:27;;;;;;;29.57;15.40;;;;;;;;;;5072443;28;20439;-67
2022/01/08 11:36:54;;;;;;;16.83;6.80;;;;;;;;;;5053603;28;20441;-68
2022/01/08 11:39:21;;;;;;;14.87;7.23;;;;;;;;;;5088698;28;20490;-67
2022/01/08 11:41:48;;;;;;;17.00;8.80;;;;;;;;;;5070277;28;20530;-68
2022/01/08 11:44:15;;;;;;;16.20;9.47;;;;;;;;;;5052044;28;20850;-68
2022/01/08 11:46:42;;;;;;;19.33;9.23;;;;;;;;;;5071786;28;20459;-67
2022/01/08 11:49:08;;;;;;;27.40;15.53;;;;;;;;;;5055516;28;20464;-66
2022/01/08 11:51:35;;;;;;;24.83;12.30;;;;;;;;;;5060290;28;20445;-67
2022/01/08 11:54:04;;;;;;;30.50;15.17;;;;;;;;;;5061495;28;20488;-68
2022/01/08 11:56:36;;;;;;;21.43;10.23;;;;;;;;;;5070659;28;20448;-67
2022/01/08 11:59:10;;;;;;;26.57;14.63;;;;;;;;;;5069634;28;20448;-67
2022/01/08 12:01:38;;;;;;;30.33;15.23;;;;;;;;;;5073366;28;20439;-67
2022/01/08 12:04:05;;;;;;;30.03;14.03;;;;;;;;;;5055347;28;20444;-67
2022/01/08 12:06:34;;;;;;;35.43;19.03;;;;;;;;;;5071250;28;20910;-68
2022/01/08 12:12:00;;;;;;;30.53;15.33;;;;;;;;;;5068914;28;20925;-67
2022/01/08 12:14:27;;;;;;;28.13;12.43;;;;;;;;;;5051018;28;20531;-68
2022/01/08 12:16:54;;;;;;;31.97;15.80;;;;;;;;;;5068621;28;20437;-67
2022/01/08 12:19:27;;;;;;;17.30;9.80;;;;;;;;;;5068655;28;20456;-67
2022/01/08 12:21:56;;;;;;;23.40;11.73;;;;;;;;;;5068812;28;20435;-67
2022/01/08 12:24:25;;;;;;;29.00;13.47;;;;;;;;;;5053709;28;20895;-67
2022/01/08 12:26:58;;;;;;;33.43;15.93;;;;;;;;;;5048490;28;20429;-67
2022/01/08 12:29:35;;;;;;;29.43;14.93;;;;;;;;;;5048532;28;20469;-67
2022/01/08 12:32:21;;;;;;;21.70;11.60;;;;;;;;;;5058245;28;20938;-67
2022/01/08 12:34:50;;;;;;;27.60;14.97;;;;;;;;;;5068462;28;20443;-67
2022/01/08 12:37:17;;;;;;;24.43;13.97;;;;;;;;;;5068304;28;20467;-66
2022/01/08 12:39:44;;;;;;;22.87;13.33;;;;;;;;;;5057147;28;20550;-65
2022/01/08 12:42:21;;;;;;;14.63;9.30;;;;;;;;;;5048407;28;20520;-65
2022/01/08 12:45:04;;;;;;;17.73;8.57;;;;;;;;;;5048713;28;20488;-65
2022/01/08 12:47:43;;;;;;;20.10;11.53;;;;;;;;;;5048473;28;21177;-66
2022/01/08 12:50:20;;;;;;;17.40;10.23;;;;;;;;;;5064872;28;20448;-66
2022/01/08 12:53:03;;;;;;;18.50;10.03;;;;;;;;;;5067771;28;20444;-66
2022/01/08 12:55:36;;;;;;;9.20;5.83;;;;;;;;;;5067966;28;20972;-65
2022/01/08 12:58:12;;;;;;;8.97;5.27;;;;;;;;;;5061997;28;20532;-65
2022/01/08 13:00:57;;;;;;;14.57;8.30;;;;;;;;;;5069731;28;20448;-66
2022/01/08 13:03:32;;;;;;;14.43;8.83;;;;;;;;;;5072212;28;20450;-66
2022/01/08 13:06:03;;;;;;;17.97;9.70;;;;;;;;;;5054674;28;20424;-65
2022/01/08 13:08:31;;;;;;;13.17;7.73;;;;;;;;;;5054410;28;20459;-65
2022/01/08 13:11:02;;;;;;;11.63;7.03;;;;;;;;;;5072260;28;20442;-65
2022/01/08 13:13:41;;;;;;;11.47;7.60;;;;;;;;;;5072000;28;20873;-67
2022/01/08 13:16:15;;;;;;;11.30;6.77;;;;;;;;;;5053681;28;20557;-66
2022/01/08 13:18:51;;;;;;;6.33;4.23;;;;;;;;;;5072029;28;20923;-65
2022/01/08 13:21:18;;;;;;;12.37;6.37;;;;;;;;;;5071845;28;20436;-65
2022/01/08 13:23:48;;;;;;;10.13;6.23;;;;;;;;;;5071486;28;20478;-65
2022/01/08 13:26:16;;;;;;;9.13;5.13;;;;;;;;;;5053861;28;20465;-65
2022/01/08 13:28:49;;;;;;;8.40;4.37;;;;;;;;;;5071694;28;20475;-65
2022/01/08 13:31:40;;;;;;;5.37;4.07;;;;;;;;;;5058324;28;20441;-65
2022/01/08 13:34:07;;;;;;;7.63;4.40;;;;;;;;;;5052965;28;20526;-65
2022/01/08 13:36:33;;;;;;;10.50;6.67;;;;;;;;;;5071702;28;20441;-65
2022/01/08 13:39:00;;;;;;;11.67;7.43;;;;;;;;;;5070868;28;20472;-65
2022/01/08 13:41:31;;;;;;;9.63;4.90;;;;;;;;;;5071327;28;20421;-66
2022/01/08 13:43:58;;;;;;;11.27;7.37;;;;;;;;;;5071804;28;20440;-66
2022/01/08 13:46:26;;;;;;;9.70;4.80;;;;;;;;;;5067850;28;20498;-66
2022/01/08 13:48:54;;;;;;;10.53;5.97;;;;;;;;;;5069286;28;20467;-66
2022/01/08 13:51:25;;;;;;;13.63;7.93;;;;;;;;;;5071210;28;20421;-66
2022/01/08 13:53:56;;;;;;;18.00;9.33;;;;;;;;;;5053871;28;20437;-66
2022/01/08 13:56:23;;;;;;;9.23;4.37;;;;;;;;;;5071051;28;20433;-66
2022/01/08 13:58:50;;;;;;;10.63;6.80;;;;;;;;;;5071646;28;20432;-66
2022/01/08 14:01:17;;;;;;;11.40;6.83;;;;;;;;;;5071268;28;20442;-66
2022/01/08 14:03:46;;;;;;;10.33;4.23;;;;;;;;;;5047515;28;20971;-66
2022/01/08 14:06:23;;;;;;;11.60;7.70;;;;;;;;;;5053708;28;20521;-66
2022/01/08 14:08:53;;;;;;;12.23;6.93;;;;;;;;;;5069037;28;21197;-66
2022/01/08 14:11:20;;;;;;;12.80;8.20;;;;;;;;;;5051279;28;20449;-66
2022/01/08 14:13:47;;;;;;;10.67;7.37;;;;;;;;;;5070990;28;20416;-66
2022/01/08 14:16:15;;;;;;;12.80;8.77;;;;;;;;;;5053243;28;20432;-66
2022/01/08 14:18:46;;;;;;;14.93;8.70;;;;;;;;;;5070472;28;20507;-66
2022/01/08 14:21:13;;;;;;;13.47;8.87;;;;;;;;;;5069636;28;20440;-67
2022/01/08 14:23:39;;;;;;;16.23;9.10;;;;;;;;;;5070658;28;20511;-66
2022/01/08 14:26:13;;;;;;;14.70;8.33;;;;;;;;;;5070941;28;20425;-66
2022/01/08 14:28:39;;;;;;;10.00;6.27;;;;;;;;;;5070313;28;20533;-66
2022/01/08 14:31:15;;;;;;;9.23;5.10;;;;;;;;;;5070678;28;20454;-66
2022/01/08 14:34:00;;;;;;;10.67;6.30;;;;;;;;;;5070478;28;20521;-66
2022/01/08 14:36:39;;;;;;;10.20;6.80;;;;;;;;;;5070672;28;20439;-66
2022/01/08 14:39:06;;;;;;;5.83;3.30;;;;;;;;;;5047911;28;20477;-65
2022/01/08 14:41:33;;;;;;;8.63;4.97;;;;;;;;;;5050268;28;20485;-67
2022/01/08 14:44:00;;;;;;;5.93;4.00;;;;;;;;;;5070526;28;20588;-65
2022/01/08 14:46:27;;;;;;;6.80;4.47;;;;;;;;;;5070418;28;20524;-66
2022/01/08 14:48:54;;;;;;;7.10;4.37;;;;;;;;;;5052627;28;20463;-65
2022/01/08 14:51:21;;;;;;;6.70;4.57;;;;;;;;;;5070142;28;20481;-66
2022/01/08 14:53:49;;;;;;;4.23;2.73;;;;;;;;;;5070284;28;20436;-65
2022/01/08 14:56:17;;;;;;;8.27;4.67;;;;;;;;;;5061088;28;20444;-65
2022/01/08 14:58:43;;;;;;;8.97;5.17;;;;;;;;;;5070213;28;20444;-65
2022/01/08 15:01:10;;;;;;;7.90;4.77;;;;;;;;;;5070046;28;20429;-66
2022/01/08 15:03:37;;;;;;;8.80;5.17;;;;;;;;;;5069836;28;20436;-67
2022/01/08 15:06:04;;;;;;;9.00;5.97;;;;;;;;;;5069765;28;20461;-66
2022/01/08 15:08:30;;;;;;;11.63;6.80;;;;;;;;;;5069482;28;20440;-66
2022/01/08 15:10:57;;;;;;;9.33;4.63;;;;;;;;;;5036063;28;20428;-65
2022/01/08 15:13:24;;;;;;;4.17;2.67;;;;;;;;;;5050752;28;20453;-66
2022/01/08 15:15:50;;;;;;;8.10;5.13;;;;;;;;;;5049854;28;20429;-66
2022/01/08 15:18:17;;;;;;;9.23;5.43;;;;;;;;;;5065027;28;20448;-66